createdAt,value
2023-02-07T00:01:44.165Z,62.90
2023-02-07T00:04:13.750Z,66.10
2023-02-07T00:06:42.116Z,66.10
2023-02-07T00:09:12.834Z,64.70
2023-02-07T00:11:41.636Z,67.80
2023-02-07T00:14:12.397Z,68.20
2023-02-07T00:16:40.986Z,67.60
2023-02-07T00:19:11.725Z,68.50
2023-02-07T00:21:41.295Z,69.60
2023-02-07T00:24:09.569Z,69.70
2023-02-07T00:26:37.735Z,71.40
2023-02-07T00:29:06.555Z,70.70
2023-02-07T00:31:36.418Z,63.50
2023-02-07T00:34:06.594Z,65.00
2023-02-07T00:36:36.431Z,83.00
2023-02-07T00:39:09.159Z,66.70
2023-02-07T00:41:37.542Z,66.20
2023-02-07T00:44:06.341Z,66.20
2023-02-07T00:46:35.396Z,64.40
2023-02-07T00:49:03.804Z,65.50
2023-02-07T00:51:32.359Z,66.40
2023-02-07T00:54:00.977Z,64.50
2023-02-07T00:56:31.432Z,65.30
2023-02-07T00:58:59.862Z,63.50
2023-02-07T01:01:28.644Z,65.50
2023-02-07T01:03:56.885Z,65.70
2023-02-07T01:06:25.299Z,61.90
2023-02-07T01:08:57.819Z,62.80
2023-02-07T01:11:26.008Z,66.10
2023-02-07T01:16:28.174Z,58.20
2023-02-07T01:18:56.635Z,64.00
2023-02-07T01:21:27.283Z,66.60
2023-02-07T01:23:57.075Z,66.60
2023-02-07T01:26:25.802Z,60.20
2023-02-07T01:28:56.524Z,63.30
2023-02-07T01:31:25.434Z,65.70
2023-02-07T01:33:57.920Z,66.20
2023-02-07T01:36:27.370Z,65.80
2023-02-07T01:38:56.375Z,64.90
2023-02-07T01:41:26.486Z,65.60
2023-02-07T01:46:26.138Z,69.80
2023-02-07T01:48:56.645Z,68.80
2023-02-07T01:51:26.453Z,66.10
2023-02-07T01:53:56.211Z,66.20
2023-02-07T01:56:31.657Z,66.90
2023-02-07T01:59:02.352Z,67.10
2023-02-07T02:01:30.727Z,67.90
2023-02-07T02:03:58.982Z,67.90
2023-02-07T02:06:30.385Z,66.00
2023-02-07T02:09:01.026Z,69.00
2023-02-07T02:14:25.279Z,68.20
2023-02-07T02:20:06.553Z,65.10
2023-02-07T02:23:03.754Z,63.00
2023-02-07T02:25:52.287Z,66.30
2023-02-07T02:31:26.640Z,71.90
2023-02-07T02:33:58.642Z,66.70
2023-02-07T02:36:34.384Z,65.60
2023-02-07T02:41:39.715Z,60.20
2023-02-07T02:44:13.038Z,64.20
2023-02-07T02:46:42.764Z,65.00
2023-02-07T03:45:13.871Z,61.00
2023-02-07T03:47:42.105Z,61.00
2023-02-07T03:50:12.208Z,63.30
2023-02-07T03:52:40.638Z,63.80
2023-02-07T03:55:09.824Z,63.20
2023-02-07T03:57:38.536Z,62.60
2023-02-07T04:00:08.490Z,63.20
2023-02-07T04:02:36.621Z,63.20
2023-02-07T04:05:04.810Z,62.40
2023-02-07T04:07:34.639Z,62.60
2023-02-07T04:10:03.493Z,62.80
2023-02-07T04:12:32.988Z,62.30
2023-02-07T04:15:01.230Z,62.00
2023-02-07T04:17:31.399Z,62.50
2023-02-07T04:20:01.662Z,62.10
2023-02-07T04:22:30.446Z,61.70
2023-02-07T04:24:59.927Z,62.50
2023-02-07T04:27:28.132Z,61.90
2023-02-07T04:29:56.378Z,62.30
2023-02-07T04:32:24.550Z,63.40
2023-02-07T04:34:52.710Z,63.80
2023-02-07T04:37:20.834Z,63.20
2023-02-07T04:39:48.952Z,63.50
2023-02-07T04:42:18.474Z,64.90
2023-02-07T04:44:46.573Z,67.80
2023-02-07T04:47:14.797Z,68.00
2023-02-07T04:49:42.987Z,69.40
2023-02-07T04:52:11.147Z,70.00
2023-02-07T04:54:39.326Z,71.10
2023-02-07T04:57:07.429Z,70.30
2023-02-07T04:59:36.858Z,69.70
2023-02-07T05:02:04.986Z,70.60
2023-02-07T05:04:33.096Z,71.20
2023-02-07T05:07:03.438Z,88.00
2023-02-07T05:09:31.552Z,86.40
2023-02-07T05:11:59.772Z,86.20
2023-02-07T05:14:27.868Z,85.00
2023-02-07T05:16:57.449Z,85.30
2023-02-07T05:19:25.576Z,84.30
2023-02-07T05:21:53.859Z,84.60
2023-02-07T05:24:22.250Z,84.60
2023-02-07T05:26:50.337Z,84.20
2023-02-07T05:29:18.458Z,84.40
2023-02-07T05:32:05.925Z,84.80
2023-02-07T05:34:37.149Z,80.20
2023-02-07T05:37:05.236Z,83.20
2023-02-07T05:39:33.406Z,82.30
2023-02-07T05:42:01.573Z,82.80
2023-02-07T05:44:29.719Z,82.00
2023-02-07T05:46:57.863Z,82.50
2023-02-07T05:49:26.097Z,82.60
2023-02-07T05:51:55.614Z,81.90
2023-02-07T05:54:23.979Z,81.80
2023-02-07T05:56:52.266Z,80.50
2023-02-07T05:59:20.435Z,82.20
2023-02-07T06:01:48.538Z,82.30
2023-02-07T06:04:16.677Z,83.80
2023-02-07T06:06:44.832Z,84.30
2023-02-07T06:09:14.442Z,85.20
2023-02-07T06:11:42.633Z,87.10
2023-02-07T06:14:10.821Z,85.90
2023-02-07T06:16:38.998Z,85.80
2023-02-07T06:19:07.105Z,83.90
2023-02-07T06:21:46.121Z,83.00
2023-02-07T06:24:16.734Z,85.00
2023-02-07T06:26:46.775Z,87.20
2023-02-07T06:29:15.328Z,88.90
2023-02-07T06:31:43.559Z,89.10
2023-02-07T06:34:11.857Z,89.30
2023-02-07T06:36:40.041Z,87.80
2023-02-07T06:39:08.435Z,88.50
2023-02-07T06:41:38.128Z,87.90
2023-02-07T06:44:06.424Z,88.00
2023-02-07T06:46:35.005Z,88.70
2023-02-07T06:49:03.163Z,88.40
2023-02-07T06:51:31.325Z,88.80
2023-02-07T06:53:59.835Z,88.60
2023-02-07T06:56:28.001Z,87.10
2023-02-07T06:58:57.586Z,87.20
2023-02-07T07:01:25.761Z,85.80
2023-02-07T07:03:54.483Z,85.30
2023-02-07T07:06:22.664Z,86.50
2023-02-07T07:08:51.817Z,85.90
2023-02-07T07:11:20.221Z,86.60
2023-02-07T07:13:48.309Z,85.80
2023-02-07T07:16:17.942Z,85.90
2023-02-07T07:18:46.269Z,86.40
2023-02-07T07:21:14.470Z,85.70
2023-02-07T07:23:42.657Z,87.10
2023-02-07T07:26:10.813Z,86.60
2023-02-07T07:28:38.966Z,85.90
2023-02-07T07:31:09.228Z,86.70
2023-02-07T07:36:09.818Z,82.80
2023-02-07T07:38:38.326Z,85.20
2023-02-07T07:41:07.036Z,85.10
2023-02-07T07:43:37.149Z,83.30
2023-02-07T07:46:07.660Z,84.50
2023-02-07T07:48:36.061Z,85.20
2023-02-07T07:51:06.173Z,85.00
2023-02-07T07:53:34.282Z,84.80
2023-02-07T07:56:02.381Z,85.10
2023-02-07T07:58:30.558Z,85.30
2023-02-07T08:00:58.905Z,84.30
2023-02-07T08:03:27.183Z,84.80
2023-02-07T08:05:56.016Z,85.40
2023-02-07T08:08:25.602Z,85.90
2023-02-07T08:10:53.774Z,84.70
2023-02-07T08:13:21.991Z,83.30
2023-02-07T08:15:50.784Z,81.40
2023-02-07T08:18:18.948Z,81.90
2023-02-07T08:20:47.106Z,79.40
2023-02-07T08:23:15.245Z,78.10
2023-02-07T08:25:46.484Z,77.00
2023-02-07T08:28:14.898Z,76.50
2023-02-07T08:30:43.163Z,76.40
2023-02-07T08:33:11.367Z,76.20
2023-02-07T08:35:39.555Z,75.00
2023-02-07T08:38:07.982Z,74.70
2023-02-07T08:40:37.623Z,74.80
2023-02-07T08:43:12.235Z,73.90
2023-02-07T08:45:40.640Z,73.10
2023-02-07T08:48:09.303Z,73.00
2023-02-07T08:50:37.933Z,72.30
2023-02-07T08:53:06.192Z,72.20
2023-02-07T08:55:34.369Z,71.40
2023-02-07T08:58:02.559Z,71.50
2023-02-07T09:00:32.030Z,71.20
2023-02-07T09:03:00.119Z,71.20
2023-02-07T09:05:28.290Z,70.40
2023-02-07T09:07:56.439Z,70.20
2023-02-07T09:10:26.291Z,69.90
2023-02-07T09:12:54.522Z,69.00
2023-02-07T09:15:22.621Z,69.60
2023-02-07T09:17:52.136Z,68.00
2023-02-07T09:20:20.473Z,67.70
2023-02-07T09:23:06.117Z,67.40
2023-02-07T09:25:34.347Z,62.00
2023-02-07T09:28:02.569Z,65.70
2023-02-07T09:30:30.721Z,65.80
2023-02-07T09:33:00.342Z,65.00
2023-02-07T09:35:28.550Z,64.10
2023-02-07T09:37:56.966Z,64.90
2023-02-07T09:40:25.478Z,64.20
2023-02-07T09:42:59.694Z,63.30
2023-02-07T09:45:32.645Z,63.20
2023-02-07T09:48:10.171Z,62.90
2023-02-07T09:50:45.970Z,63.50
2023-02-07T09:53:17.280Z,62.80
2023-02-07T09:55:50.365Z,63.00
2023-02-07T09:58:21.504Z,62.00
2023-02-07T10:00:59.564Z,62.50
2023-02-07T10:03:29.736Z,61.90
2023-02-07T10:06:09.191Z,61.90
2023-02-07T10:08:46.337Z,63.40
2023-02-07T10:11:18.849Z,62.00
2023-02-07T10:14:05.152Z,61.70
2023-02-07T10:16:49.583Z,58.70
2023-02-07T10:19:32.736Z,58.40
2023-02-07T10:22:09.585Z,61.00
2023-02-07T10:24:57.394Z,60.90
2023-02-07T10:27:31.636Z,57.80
2023-02-07T10:30:10.263Z,60.40
2023-02-07T10:32:40.054Z,59.70
2023-02-07T10:35:18.489Z,58.10
2023-02-07T10:37:48.207Z,58.00
2023-02-07T10:40:22.105Z,58.00
2023-02-07T10:43:04.436Z,60.30
2023-02-07T10:45:32.812Z,59.10
2023-02-07T10:48:00.969Z,57.90
2023-02-07T10:50:30.857Z,57.70
2023-02-07T10:53:00.279Z,57.80
2023-02-07T10:55:39.107Z,55.70
2023-02-07T10:58:21.147Z,57.50
2023-02-07T11:00:52.252Z,57.20
2023-02-07T11:03:21.984Z,56.70
2023-02-07T11:05:57.867Z,54.00
2023-02-07T11:08:28.542Z,56.30
2023-02-07T11:10:58.682Z,53.90
2023-02-07T11:13:29.239Z,54.30
2023-02-07T11:16:04.040Z,54.20
2023-02-07T11:18:39.444Z,55.00
2023-02-07T11:21:23.732Z,55.00
2023-02-07T11:26:22.793Z,51.10
2023-02-07T11:28:54.491Z,53.90
2023-02-07T11:31:31.653Z,53.90
2023-02-07T11:34:11.334Z,55.00
2023-02-07T11:36:40.889Z,55.10
2023-02-07T11:39:16.977Z,54.30
2023-02-07T11:41:55.514Z,53.80
2023-02-07T11:44:26.113Z,52.00
2023-02-07T11:46:58.052Z,52.90
2023-02-07T11:49:29.134Z,53.20
2023-02-07T11:52:01.600Z,52.00
2023-02-07T11:54:32.203Z,53.10
2023-02-07T11:57:04.296Z,52.00
2023-02-07T11:59:34.740Z,52.70
2023-02-07T12:02:23.738Z,51.80
2023-02-07T12:04:54.780Z,52.00
2023-02-07T12:07:27.945Z,51.40
2023-02-07T12:09:59.101Z,52.20
2023-02-07T12:12:35.506Z,51.30
2023-02-07T12:15:10.262Z,51.30
2023-02-07T12:17:52.756Z,50.30
2023-02-07T12:20:26.014Z,51.00
2023-02-07T12:23:21.545Z,50.10
2023-02-07T12:25:56.285Z,50.50
2023-02-07T12:28:32.572Z,49.30
2023-02-07T12:31:06.730Z,49.60
2023-02-07T12:33:42.030Z,49.40
2023-02-07T12:36:16.270Z,48.70
2023-02-07T12:38:49.266Z,48.10
2023-02-07T12:41:24.477Z,48.40
2023-02-07T12:44:03.196Z,48.90
2023-02-07T12:46:40.462Z,48.80
2023-02-07T12:49:40.424Z,48.30
2023-02-07T12:52:21.410Z,43.40
2023-02-07T12:55:04.330Z,47.20
2023-02-07T12:57:38.824Z,48.40
2023-02-07T13:00:14.043Z,45.10
2023-02-07T13:02:55.482Z,45.50
2023-02-07T13:06:02.585Z,45.20
2023-02-07T13:08:42.175Z,39.40
2023-02-07T13:11:21.669Z,43.10
2023-02-07T13:14:00.520Z,43.90
2023-02-07T13:16:35.936Z,44.20
2023-02-07T13:19:12.485Z,43.50
2023-02-07T13:21:48.665Z,42.80
2023-02-07T13:24:21.879Z,42.90
2023-02-07T13:26:55.534Z,42.20
2023-02-07T13:29:25.665Z,41.30
2023-02-07T13:31:57.309Z,41.40
2023-02-07T13:34:28.978Z,42.40
2023-02-07T13:37:00.754Z,43.30
2023-02-07T13:39:47.043Z,40.80
2023-02-07T13:42:24.885Z,40.10
2023-02-07T13:44:59.795Z,41.10
2023-02-07T13:47:54.520Z,41.20
2023-02-07T13:50:40.344Z,41.20
2023-02-07T13:53:22.735Z,36.40
2023-02-07T13:55:51.235Z,41.10
2023-02-07T13:59:11.732Z,40.20
2023-02-07T14:01:52.766Z,36.10
2023-02-07T14:04:22.592Z,36.70
2023-02-07T14:07:03.729Z,40.00
2023-02-07T14:09:35.481Z,38.40
2023-02-07T14:12:06.342Z,40.20
2023-02-07T14:14:39.744Z,37.60
2023-02-07T14:17:11.538Z,37.90
2023-02-07T14:19:55.391Z,36.40
2023-02-07T14:25:21.007Z,34.70
